Time;durP1;ratioP1;P1;durP2;ratioP2;P2;SDS_P1;SDS_P2;PMS_P1;PMS_P2;Temp;Humidity;BMP_temperature;BMP_pressure;BME280_temperature;BME280_humidity;BME280_pressure;Samples;Min_cycle;Max_cycle;Signal;HPM_P1;HPM_P2
2022/04/12 00:00:35;;;;;;;0.10;0.10;;;;;;;8.54;71.31;101108.72;5058284;28;20485;-68
2022/04/12 00:03:00;;;;;;;0.10;0.10;;;;;;;8.40;72.26;101105.53;5070192;28;20040;-69
2022/04/12 00:05:26;;;;;;;0.10;0.10;;;;;;;8.38;72.53;101099.69;5051892;28;20041;-68
2022/04/12 00:07:51;;;;;;;0.10;0.10;;;;;;;8.45;71.81;101112.59;5060663;28;20037;-69
2022/04/12 00:10:17;;;;;;;0.10;0.10;;;;;;;8.59;70.80;101108.53;5070125;28;20042;-69
2022/04/12 00:12:43;;;;;;;0.10;0.10;;;;;;;8.30;72.62;101105.94;5062989;28;20052;-69
2022/04/12 00:15:10;;;;;;;0.10;0.10;;;;;;;8.45;72.06;101108.03;5052858;28;20036;-69
2022/04/12 00:20:21;;;;;;;0.10;0.10;;;;;;;8.36;72.56;101104.63;5065258;28;20470;-69
2022/04/12 00:22:47;;;;;;;0.20;0.20;;;;;;;8.28;73.28;101102.78;5060109;28;20123;-69
2022/04/12 00:25:13;;;;;;;0.10;0.10;;;;;;;8.43;71.62;101096.81;5058790;28;20658;-69
2022/04/12 00:27:40;;;;;;;0.10;0.10;;;;;;;8.27;73.14;101106.56;5051877;28;20036;-68
2022/04/12 00:30:08;;;;;;;0.10;0.10;;;;;;;8.31;72.80;101106.69;5054175;28;20032;-69
2022/04/12 00:32:35;;;;;;;0.10;0.10;;;;;;;8.36;71.65;101096.59;5053450;28;20046;-68
2022/04/12 00:35:01;;;;;;;0.10;0.10;;;;;;;8.13;72.98;101097.97;5061316;28;20041;-68
2022/04/12 00:37:27;;;;;;;0.10;0.10;;;;;;;8.12;73.45;101096.41;5065226;28;20473;-68
2022/04/12 00:39:52;;;;;;;0.10;0.10;;;;;;;8.13;73.29;101104.13;5069797;28;20072;-68
2022/04/12 00:42:18;;;;;;;0.10;0.10;;;;;;;8.23;72.69;101097.59;5063193;28;20032;-69
2022/04/12 00:44:44;;;;;;;0.10;0.10;;;;;;;8.00;73.93;101102.50;5070768;28;20039;-69
2022/04/12 00:47:09;;;;;;;0.10;0.10;;;;;;;7.81;75.51;101096.00;5052302;28;20036;-68
2022/04/12 00:49:35;;;;;;;0.20;0.20;;;;;;;8.16;73.49;101091.97;5067809;28;20058;-69
2022/04/12 00:52:01;;;;;;;0.10;0.10;;;;;;;7.94;73.89;101089.59;5067397;28;20067;-69
2022/04/12 00:54:28;;;;;;;0.10;0.10;;;;;;;7.86;74.76;101087.75;5070295;28;20112;-69
2022/04/12 00:56:54;;;;;;;0.10;0.10;;;;;;;7.73;75.98;101086.09;5053396;28;20043;-68
2022/04/12 00:59:19;;;;;;;0.10;0.10;;;;;;;8.13;73.06;101071.94;5050041;28;20115;-69
2022/04/12 01:01:45;;;;;;;0.15;0.15;;;;;;;8.23;72.47;101064.63;5064115;28;20059;-68
2022/04/12 01:04:10;;;;;;;0.10;0.10;;;;;;;8.08;73.00;101074.03;5069492;28;20055;-69
2022/04/12 01:06:37;;;;;;;0.10;0.10;;;;;;;8.11;72.76;101070.69;5069964;28;20028;-68
2022/04/12 01:09:06;;;;;;;0.10;0.10;;;;;;;7.86;74.02;101068.97;5070525;28;20040;-69
2022/04/12 01:11:33;;;;;;;0.10;0.10;;;;;;;7.96;74.30;101060.56;5060406;28;20591;-69
2022/04/12 01:13:59;;;;;;;0.10;0.10;;;;;;;7.75;74.77;101060.56;5070428;28;20033;-69
2022/04/12 01:16:25;;;;;;;0.10;0.10;;;;;;;7.78;74.91;101064.47;5059605;28;20041;-69
2022/04/12 01:18:50;;;;;;;0.10;0.10;;;;;;;7.83;74.73;101054.34;5070738;28;20131;-69
2022/04/12 01:21:15;;;;;;;0.10;0.10;;;;;;;7.75;75.51;101054.41;5071114;28;20517;-69
2022/04/12 01:24:03;;;;;;;0.38;0.38;;;;;;;7.83;74.88;101050.88;5070709;28;20032;-69
2022/04/12 01:26:30;;;;;;;0.08;0.08;;;;;;;7.76;74.88;101048.69;5059957;28;20058;-69
2022/04/12 01:28:56;;;;;;;0.10;0.10;;;;;;;7.87;74.51;101049.13;5069915;28;20446;-69
2022/04/12 01:31:23;;;;;;;0.10;0.10;;;;;;;7.88;74.66;101043.41;5071354;28;20049;-69
2022/04/12 01:33:49;;;;;;;0.10;0.10;;;;;;;7.82;74.46;101033.25;5065289;28;20397;-69
2022/04/12 01:36:14;;;;;;;0.10;0.10;;;;;;;7.72;74.98;101030.94;5069965;28;20036;-69
2022/04/12 01:38:40;;;;;;;0.10;0.10;;;;;;;7.66;76.07;101032.25;5069591;28;20055;-69
2022/04/12 01:41:05;;;;;;;0.20;0.20;;;;;;;7.52;76.65;101021.75;5071413;28;20121;-69
2022/04/12 01:43:30;;;;;;;0.10;0.10;;;;;;;7.77;75.47;101015.44;5068369;28;20163;-69
2022/04/12 01:45:56;;;;;;;0.10;0.10;;;;;;;7.95;74.62;101021.47;5053106;28;20405;-69
2022/04/12 01:48:21;;;;;;;0.10;0.10;;;;;;;7.75;74.91;101024.91;5065419;28;20118;-69
2022/04/12 01:50:48;;;;;;;0.10;0.10;;;;;;;7.69;74.70;101020.84;5069207;28;20032;-69
2022/04/12 01:53:13;;;;;;;0.10;0.10;;;;;;;7.64;75.08;101018.38;5070444;28;20086;-69
2022/04/12 01:55:39;;;;;;;0.40;0.40;;;;;;;7.43;76.47;101009.53;5070736;28;20032;-69
2022/04/12 01:58:04;;;;;;;0.10;0.10;;;;;;;7.60;76.24;101009.41;5065229;28;20055;-69
2022/04/12 02:00:30;;;;;;;0.10;0.10;;;;;;;7.88;74.66;101013.13;5069513;28;20565;-69
2022/04/12 02:02:55;;;;;;;0.10;0.10;;;;;;;7.76;75.08;101018.47;5070825;28;20033;-69
2022/04/12 02:05:21;;;;;;;0.10;0.10;;;;;;;7.66;75.25;101018.84;5064797;28;20090;-69
2022/04/12 02:07:47;;;;;;;1.50;1.40;;;;;;;7.55;75.97;101023.00;5070042;28;20031;-69
2022/04/12 02:10:13;;;;;;;0.10;0.10;;;;;;;7.68;75.38;101024.66;5070108;28;20036;-69
2022/04/12 02:12:38;;;;;;;0.10;0.10;;;;;;;7.81;74.96;101012.88;5069669;28;20082;-69
2022/04/12 02:15:04;;;;;;;0.15;0.15;;;;;;;7.60;75.57;101014.78;5052692;28;20043;-69
2022/04/12 02:17:30;;;;;;;0.10;0.10;;;;;;;7.63;75.45;101019.47;5051985;28;20142;-69
2022/04/12 02:19:55;;;;;;;0.13;0.13;;;;;;;7.51;76.46;101001.41;5049774;28;20725;-69
2022/04/12 02:22:21;;;;;;;0.10;0.10;;;;;;;7.73;74.73;101001.13;5057055;28;20032;-69
2022/04/12 02:24:46;;;;;;;0.10;0.10;;;;;;;7.76;74.32;100999.69;5052071;28;20032;-69
2022/04/12 02:27:12;;;;;;;0.22;0.22;;;;;;;7.66;75.03;100997.41;5064399;28;20032;-69
2022/04/12 02:29:38;;;;;;;0.20;0.20;;;;;;;7.36;76.55;100999.31;5070025;28;20056;-69
2022/04/12 02:32:03;;;;;;;0.10;0.10;;;;;;;7.29;76.62;100997.16;5056471;28;20028;-69
2022/04/12 02:34:29;;;;;;;0.20;0.20;;;;;;;7.56;75.98;101000.44;5068276;28;20119;-69
2022/04/12 02:36:54;;;;;;;0.10;0.10;;;;;;;7.39;76.27;100998.69;5064951;28;20505;-69
2022/04/12 02:39:20;;;;;;;0.20;0.20;;;;;;;7.34;77.32;101006.88;5069713;28;20043;-69
2022/04/12 02:41:45;;;;;;;0.10;0.10;;;;;;;7.25;77.33;101003.47;5061426;28;20052;-69
2022/04/12 02:44:11;;;;;;;0.20;0.20;;;;;;;7.36;76.75;101010.03;5069561;28;20077;-69
2022/04/12 02:46:37;;;;;;;0.10;0.10;;;;;;;7.45;76.01;101008.09;5068617;28;20059;-69
2022/04/12 02:49:02;;;;;;;0.10;0.10;;;;;;;7.54;75.47;101003.47;5073016;28;20024;-69
2022/04/12 02:51:27;;;;;;;0.10;0.10;;;;;;;7.40;75.94;100999.44;5074156;28;20481;-69
2022/04/12 02:53:53;;;;;;;0.10;0.10;;;;;;;7.44;75.54;100997.69;5069981;28;20043;-69
2022/04/12 02:56:18;;;;;;;0.10;0.10;;;;;;;7.46;75.18;100998.16;5073755;28;20558;-69
2022/04/12 02:58:44;;;;;;;0.35;0.35;;;;;;;7.39;76.07;101003.25;5072793;28;20115;-69
2022/04/12 03:01:09;;;;;;;0.13;0.13;;;;;;;7.47;75.43;101000.50;5049583;28;20092;-70
2022/04/12 03:03:35;;;;;;;0.10;0.10;;;;;;;7.37;76.22;101002.78;5068515;28;20432;-69
2022/04/12 03:06:00;;;;;;;0.10;0.10;;;;;;;7.22;76.97;100996.06;5071624;28;20037;-69
2022/04/12 03:08:25;;;;;;;0.10;0.10;;;;;;;7.06;78.08;100990.50;5065411;28;20037;-69
2022/04/12 03:10:51;;;;;;;0.10;0.10;;;;;;;7.28;77.23;100990.22;5071079;28;20036;-69
2022/04/12 03:13:16;;;;;;;0.10;0.10;;;;;;;7.34;76.64;100990.06;5057083;28;20362;-69
2022/04/12 03:15:42;;;;;;;0.10;0.10;;;;;;;7.36;76.13;100993.16;5073871;28;20032;-69
2022/04/12 03:18:07;;;;;;;0.10;0.10;;;;;;;7.19;76.70;100994.84;5045178;22;20045;-61
2022/04/12 03:20:33;;;;;;;0.10;0.10;;;;;;;7.17;77.18;101002.41;5038691;28;20035;-61
2022/04/12 03:22:59;;;;;;;0.15;0.15;;;;;;;7.13;77.37;101000.69;5040043;28;20475;-61
2022/04/12 03:25:24;;;;;;;0.10;0.10;;;;;;;7.12;78.26;101005.25;5066116;28;20032;-60
2022/04/12 03:27:50;;;;;;;0.20;0.20;;;;;;;7.27;76.72;100998.59;5051055;28;20089;-59
2022/04/12 03:30:15;;;;;;;0.10;0.10;;;;;;;7.41;76.08;101003.72;5063152;28;20521;-61
2022/04/12 03:32:41;;;;;;;0.20;0.20;;;;;;;7.38;76.19;101001.66;5059989;28;20467;-60
2022/04/12 03:35:07;;;;;;;0.10;0.10;;;;;;;7.39;75.20;101006.72;5042830;28;20037;-61
2022/04/12 03:37:33;;;;;;;0.22;0.22;;;;;;;7.06;77.73;101009.25;5039688;28;20036;-62
2022/04/12 03:39:58;;;;;;;0.10;0.10;;;;;;;7.27;76.54;101002.06;5036468;28;20036;-61
2022/04/12 03:42:23;;;;;;;3.40;0.40;;;;;;;7.18;76.51;101003.97;5024068;28;20043;-62
2022/04/12 03:44:49;;;;;;;0.10;0.10;;;;;;;7.14;77.58;100999.59;5047280;28;20052;-63
2022/04/12 03:47:14;;;;;;;0.17;0.17;;;;;;;7.15;77.73;100996.59;5045567;28;20061;-62
2022/04/12 03:49:40;;;;;;;0.10;0.10;;;;;;;7.29;75.81;100999.06;5034242;28;20029;-62
2022/04/12 03:52:05;;;;;;;0.10;0.10;;;;;;;7.26;76.53;101005.03;5051354;28;20032;-62
2022/04/12 03:54:31;;;;;;;0.30;0.30;;;;;;;7.11;77.35;100986.84;5049920;28;20064;-60
2022/04/12 03:56:57;;;;;;;0.10;0.10;;;;;;;7.07;77.20;100997.44;5033746;28;20038;-60
2022/04/12 03:59:22;;;;;;;0.10;0.10;;;;;;;6.98;78.24;100994.00;5051528;28;20048;-60
2022/04/12 04:01:49;;;;;;;0.10;0.10;;;;;;;7.03;78.11;100988.47;5051854;28;20029;-60
2022/04/12 04:04:15;;;;;;;0.10;0.10;;;;;;;6.90;78.47;100992.16;5048677;28;20577;-59
2022/04/12 04:06:41;;;;;;;0.10;0.10;;;;;;;7.03;77.60;100990.34;5051840;28;20464;-56
2022/04/12 04:09:06;;;;;;;0.30;0.30;;;;;;;7.08;77.25;100982.91;5051386;28;20094;-58
2022/04/12 04:11:32;;;;;;;0.10;0.10;;;;;;;7.38;75.33;100985.59;5051860;28;20399;-60
2022/04/12 04:14:00;;;;;;;0.17;0.17;;;;;;;7.16;76.56;100995.47;5063325;28;20384;-59
2022/04/12 04:16:26;;;;;;;0.10;0.10;;;;;;;7.20;76.16;100998.31;5051590;28;20059;-59
2022/04/12 04:18:51;;;;;;;0.10;0.10;;;;;;;7.20;76.24;100990.28;5050935;28;20033;-58
2022/04/12 04:21:17;;;;;;;0.10;0.10;;;;;;;7.07;77.20;100991.28;5047206;28;20040;-62
2022/04/12 04:23:42;;;;;;;0.10;0.10;;;;;;;6.92;78.08;100987.25;5050578;28;20424;-62
2022/04/12 04:26:08;;;;;;;0.10;0.10;;;;;;;6.98;77.27;100987.88;5050689;28;20037;-60
2022/04/12 04:28:34;;;;;;;0.10;0.10;;;;;;;7.20;76.72;100991.06;5063834;28;20028;-60
2022/04/12 04:30:59;;;;;;;0.08;0.08;;;;;;;7.22;76.20;100988.03;5045893;28;20090;-59
2022/04/12 04:33:25;;;;;;;0.10;0.10;;;;;;;7.06;77.28;100982.47;5047816;28;20025;-59
2022/04/12 04:35:51;;;;;;;0.10;0.10;;;;;;;7.16;75.69;100986.69;5049867;28;20049;-60
2022/04/12 04:38:17;;;;;;;0.10;0.10;;;;;;;7.07;77.13;100984.03;5059135;28;20034;-60
2022/04/12 04:40:42;;;;;;;0.10;0.10;;;;;;;6.99;76.89;100981.38;5070915;28;20093;-60
2022/04/12 04:43:09;;;;;;;0.10;0.10;;;;;;;7.12;76.83;100983.09;5056099;28;20083;-59
2022/04/12 04:45:35;;;;;;;0.10;0.10;;;;;;;7.28;75.50;100982.19;5059823;28;20107;-61
2022/04/12 04:48:02;;;;;;;0.15;0.15;;;;;;;7.23;76.39;100971.66;5049829;28;20100;-58
2022/04/12 04:50:31;;;;;;;0.20;0.20;;;;;;;7.11;76.82;100979.59;5048673;28;20032;-60
2022/04/12 04:52:56;;;;;;;0.20;0.20;;;;;;;7.21;75.83;100981.94;5042770;28;20036;-63
2022/04/12 04:55:22;;;;;;;0.10;0.10;;;;;;;7.11;76.88;100987.63;5040305;28;20029;-62
2022/04/12 04:57:52;;;;;;;0.10;0.10;;;;;;;7.28;76.10;100982.19;5040746;28;20041;-63
2022/04/12 05:00:19;;;;;;;0.10;0.10;;;;;;;7.23;76.23;100985.06;5041803;28;20029;-62
2022/04/12 05:02:46;;;;;;;0.13;0.13;;;;;;;7.37;75.79;100992.06;5053321;28;20040;-62
2022/04/12 05:05:12;;;;;;;0.10;0.10;;;;;;;7.07;76.42;100994.75;5051078;28;20080;-62
2022/04/12 05:07:38;;;;;;;0.00;0.00;;;;;;;7.14;76.41;101002.28;5045677;28;20094;-62
2022/04/12 05:10:04;;;;;;;0.10;0.10;;;;;;;7.32;76.13;101003.75;5050160;28;20036;-62
2022/04/12 05:12:30;;;;;;;0.10;0.10;;;;;;;7.43;75.84;101001.50;5044399;28;20048;-62
2022/04/12 05:14:56;;;;;;;0.10;0.10;;;;;;;7.54;74.80;101011.50;5050431;28;20069;-63
2022/04/12 05:17:28;;;;;;;0.10;0.10;;;;;;;7.47;75.68;101015.81;5055567;28;20068;-62
2022/04/12 05:19:56;;;;;;;0.10;0.10;;;;;;;7.47;75.41;101011.22;5031191;28;20041;-62
2022/04/12 05:22:22;;;;;;;0.15;0.15;;;;;;;7.42;75.65;101013.31;5064680;28;20047;-62
2022/04/12 05:24:48;;;;;;;0.10;0.10;;;;;;;7.50;75.47;101015.94;5050571;28;20047;-62
2022/04/12 05:27:14;;;;;;;0.10;0.10;;;;;;;7.51;74.76;101016.72;5050410;28;20673;-62
2022/04/12 05:29:40;;;;;;;0.10;0.10;;;;;;;7.48;75.31;101023.53;5041617;28;20033;-63
2022/04/12 05:32:06;;;;;;;0.08;0.08;;;;;;;7.62;74.79;101026.75;5017002;28;20044;-62
2022/04/12 05:34:31;;;;;;;0.10;0.10;;;;;;;7.71;75.09;101032.03;5037382;28;20430;-62
2022/04/12 05:36:56;;;;;;;0.10;0.10;;;;;;;7.56;75.06;101021.88;5052153;28;20406;-62
2022/04/12 05:39:22;;;;;;;0.10;0.10;;;;;;;7.80;73.74;101033.53;5048862;28;20509;-62
2022/04/12 05:41:48;;;;;;;0.10;0.10;;;;;;;7.68;74.80;101035.38;5039035;28;20040;-62
2022/04/12 05:44:13;;;;;;;0.10;0.10;;;;;;;7.81;74.23;101035.13;5041329;28;20123;-62
2022/04/12 05:46:39;;;;;;;0.10;0.10;;;;;;;7.90;73.80;101035.84;5043810;28;20040;-61
2022/04/12 05:49:05;;;;;;;0.10;0.10;;;;;;;8.01;72.42;101046.97;5045520;28;20024;-62
2022/04/12 05:51:32;;;;;;;0.10;0.10;;;;;;;8.02;72.59;101038.59;5028864;28;20140;-62
2022/04/12 05:53:58;;;;;;;0.10;0.10;;;;;;;8.03;72.35;101042.06;5023452;28;20119;-62
2022/04/12 05:56:23;;;;;;;0.08;0.08;;;;;;;8.05;72.73;101048.66;5044877;28;20573;-61
2022/04/12 05:58:49;;;;;;;0.10;0.10;;;;;;;8.02;73.12;101054.69;5046508;28;20033;-62
2022/04/12 06:01:14;;;;;;;0.10;0.10;;;;;;;8.01;73.17;101066.50;5036452;28;20036;-62
2022/04/12 06:03:39;;;;;;;0.10;0.10;;;;;;;8.10;73.01;101069.13;5050219;28;20029;-62
2022/04/12 06:06:05;;;;;;;0.10;0.10;;;;;;;8.33;71.61;101070.38;5043874;28;20036;-62
2022/04/12 06:08:30;;;;;;;0.10;0.10;;;;;;;8.47;71.33;101073.59;5048731;28;20118;-62
2022/04/12 06:10:56;;;;;;;0.28;0.25;;;;;;;8.45;71.93;101059.72;5051899;28;20041;-61
2022/04/12 06:13:21;;;;;;;0.20;0.20;;;;;;;8.37;72.17;101065.94;5050177;28;20075;-62
2022/04/12 06:15:47;;;;;;;0.10;0.10;;;;;;;8.47;72.17;101062.84;5040260;28;20044;-62
2022/04/12 06:18:12;;;;;;;0.10;0.10;;;;;;;8.68;71.48;101070.84;5046412;28;20048;-62
2022/04/12 06:20:38;;;;;;;0.10;0.10;;;;;;;8.66;70.73;101062.34;5048093;28;20427;-62
2022/04/12 06:23:04;;;;;;;0.10;0.10;;;;;;;8.85;69.29;101049.19;5029947;28;20029;-62
2022/04/12 06:25:29;;;;;;;0.10;0.10;;;;;;;8.98;68.75;101048.88;5047344;28;20064;-62
2022/04/12 06:27:55;;;;;;;0.10;0.10;;;;;;;9.00;68.98;101051.25;5048463;28;20029;-61
2022/04/12 06:30:26;;;;;;;0.10;0.10;;;;;;;9.13;68.04;101043.97;5048839;28;20037;-61
2022/04/12 06:32:52;;;;;;;0.10;0.10;;;;;;;8.97;68.38;101041.16;5049791;28;20120;-62
2022/04/12 06:35:19;;;;;;;0.10;0.10;;;;;;;8.97;68.41;101043.84;5046071;28;20037;-63
2022/04/12 06:37:45;;;;;;;0.30;0.30;;;;;;;9.01;67.70;101028.63;5048668;28;20159;-63
2022/04/12 06:40:13;;;;;;;0.10;0.10;;;;;;;9.07;67.23;101020.03;5042806;28;20032;-62
2022/04/12 06:42:39;;;;;;;0.10;0.10;;;;;;;9.17;67.36;101013.41;5029494;28;20065;-62
2022/04/12 06:45:05;;;;;;;0.10;0.10;;;;;;;9.24;67.05;101024.38;5042669;28;20106;-62
2022/04/12 06:47:32;;;;;;;0.10;0.10;;;;;;;9.23;67.19;101022.03;5041484;28;20029;-62
2022/04/12 06:49:58;;;;;;;0.10;0.10;;;;;;;9.22;67.28;101025.81;5047981;28;20040;-63
2022/04/12 06:52:23;;;;;;;0.10;0.10;;;;;;;9.33;66.94;101027.72;5041941;28;20029;-63
2022/04/12 06:54:49;;;;;;;0.10;0.10;;;;;;;9.47;65.99;101027.38;5044304;28;20195;-63
2022/04/12 06:57:15;;;;;;;0.20;0.20;;;;;;;9.40;66.78;101030.66;5045802;28;20033;-62
2022/04/12 06:59:41;;;;;;;0.10;0.10;;;;;;;9.66;63.83;101024.88;5049681;28;20122;-62
2022/04/12 07:02:06;;;;;;;0.10;0.10;;;;;;;9.51;64.89;101039.81;5048387;28;20458;-63
2022/04/12 07:04:32;;;;;;;0.10;0.10;;;;;;;9.55;65.74;101035.34;5045009;28;20108;-62
2022/04/12 07:06:59;;;;;;;0.10;0.10;;;;;;;9.71;64.79;101041.59;5047513;28;20036;-64
2022/04/12 07:09:27;;;;;;;0.10;0.10;;;;;;;9.53;64.25;101036.78;5037398;28;20029;-62
2022/04/12 07:11:56;;;;;;;0.10;0.10;;;;;;;9.69;63.29;101051.13;5048273;28;20044;-63
2022/04/12 07:14:22;;;;;;;0.10;0.10;;;;;;;9.54;62.96;101062.56;5048109;28;20045;-62
2022/04/12 07:16:48;;;;;;;0.10;0.10;;;;;;;9.79;62.62;101054.09;5044630;28;20083;-63
2022/04/12 07:19:13;;;;;;;0.20;0.20;;;;;;;9.82;63.42;101044.59;5047304;28;20450;-63
2022/04/12 07:21:39;;;;;;;0.20;0.20;;;;;;;10.02;61.10;101051.72;5031112;28;20041;-62
2022/04/12 07:24:06;;;;;;;0.10;0.10;;;;;;;9.93;62.14;101061.81;5045403;28;20068;-63
2022/04/12 07:26:32;;;;;;;0.10;0.10;;;;;;;9.99;61.55;101060.47;5048503;28;20530;-62
2022/04/12 07:28:58;;;;;;;0.10;0.10;;;;;;;10.03;61.10;101062.13;5048046;28;20072;-62
2022/04/12 07:31:25;;;;;;;0.10;0.10;;;;;;;9.93;62.46;101077.97;5045761;28;20025;-62
2022/04/12 07:33:50;;;;;;;0.10;0.10;;;;;;;9.96;61.68;101077.28;5045369;28;20032;-63
2022/04/12 07:36:16;;;;;;;0.10;0.10;;;;;;;9.91;61.73;101069.47;5022122;28;20124;-63
2022/04/12 07:38:42;;;;;;;0.10;0.10;;;;;;;10.26;60.67;101072.44;5041843;28;20052;-63
2022/04/12 07:41:09;;;;;;;0.10;0.10;;;;;;;10.13;60.32;101076.25;5035883;28;20037;-63
2022/04/12 07:43:35;;;;;;;0.10;0.10;;;;;;;10.28;61.17;101079.03;5034117;28;20404;-62
2022/04/12 07:46:00;;;;;;;0.25;0.25;;;;;;;10.33;60.15;101078.78;5039935;28;20037;-62
2022/04/12 07:48:25;;;;;;;0.10;0.10;;;;;;;10.45;59.18;101081.41;5033102;28;20075;-63
2022/04/12 07:50:51;;;;;;;0.10;0.10;;;;;;;10.49;58.59;101081.53;5033554;28;20068;-62
2022/04/12 07:53:17;;;;;;;0.10;0.10;;;;;;;10.65;57.66;101087.72;5029425;28;20563;-62
2022/04/12 07:55:42;;;;;;;0.10;0.10;;;;;;;10.57;58.35;101083.28;5011660;28;20098;-62
2022/04/12 07:58:08;;;;;;;0.10;0.10;;;;;;;10.62;59.73;101086.53;5034252;28;20133;-62
2022/04/12 08:00:33;;;;;;;0.03;0.03;;;;;;;10.78;58.88;101081.19;5012635;28;20095;-62
2022/04/12 08:02:59;;;;;;;0.10;0.10;;;;;;;11.21;57.92;101073.03;5035864;28;20492;-63
2022/04/12 08:05:24;;;;;;;0.10;0.10;;;;;;;11.21;56.57;101072.22;5024013;28;20029;-62
2022/04/12 08:07:50;;;;;;;0.10;0.10;;;;;;;11.25;57.16;101083.88;5032358;28;20025;-62
2022/04/12 08:10:16;;;;;;;0.10;0.10;;;;;;;11.63;55.54;101086.75;5038138;28;20514;-64
2022/04/12 08:12:42;;;;;;;0.05;0.05;;;;;;;11.62;56.82;101094.03;5027717;28;20346;-63
2022/04/12 08:15:12;;;;;;;0.10;0.10;;;;;;;11.71;56.28;101081.16;5030084;28;20037;-63
2022/04/12 08:17:39;;;;;;;0.10;0.10;;;;;;;11.93;54.17;101079.72;5034536;28;21066;-62
2022/04/12 08:20:05;;;;;;;0.25;0.25;;;;;;;12.23;54.04;101069.19;5041908;28;20451;-62
2022/04/12 08:22:32;;;;;;;0.10;0.10;;;;;;;12.16;53.14;101069.81;5025863;28;20044;-63
2022/04/12 08:24:58;;;;;;;0.10;0.10;;;;;;;12.24;53.73;101081.53;5034908;28;20492;-63
2022/04/12 08:27:25;;;;;;;0.10;0.10;;;;;;;12.22;54.03;101075.69;5040690;28;20029;-62
2022/04/12 08:29:50;;;;;;;0.00;0.00;;;;;;;12.32;53.37;101065.13;5036170;28;20423;-64
2022/04/12 08:32:16;;;;;;;0.10;0.10;;;;;;;12.38;53.06;101071.81;5034182;28;20028;-62
2022/04/12 08:34:42;;;;;;;0.08;0.08;;;;;;;12.55;52.13;101065.97;5031460;28;20041;-60
2022/04/12 08:37:07;;;;;;;0.10;0.10;;;;;;;12.59;52.14;101060.63;5040259;28;20025;-62
2022/04/12 08:39:33;;;;;;;0.17;0.10;;;;;;;12.82;52.82;101060.63;5015866;28;20037;-62
2022/04/12 08:42:00;;;;;;;0.10;0.10;;;;;;;12.87;52.02;101050.34;5036789;28;20026;-62
2022/04/12 08:44:26;;;;;;;0.00;0.00;;;;;;;13.07;51.63;101059.16;5034293;28;20060;-64
2022/04/12 08:46:56;;;;;;;0.20;0.20;;;;;;;13.32;50.65;101050.31;5033890;28;20036;-62
2022/04/12 08:49:23;;;;;;;0.10;0.10;;;;;;;13.35;51.02;101038.00;5043878;28;20033;-62
2022/04/12 08:51:49;;;;;;;0.10;0.10;;;;;;;13.71;50.30;101040.06;5034038;28;20064;-62
2022/04/12 08:54:16;;;;;;;0.08;0.08;;;;;;;13.73;50.10;101037.78;5046144;28;20091;-62
2022/04/12 08:56:44;;;;;;;0.05;0.05;;;;;;;13.86;49.64;101044.53;5028911;28;20040;-61
2022/04/12 08:59:10;;;;;;;0.10;0.10;;;;;;;13.88;49.26;101042.22;5040669;28;20038;-62
2022/04/12 09:01:35;;;;;;;0.10;0.10;;;;;;;14.04;48.52;101058.28;5036328;28;20102;-62
2022/04/12 09:04:00;;;;;;;0.10;0.10;;;;;;;14.09;48.57;101058.75;5036718;28;20037;-62
2022/04/12 09:06:26;;;;;;;0.20;0.20;;;;;;;14.48;48.00;101047.63;5040989;28;20080;-61
2022/04/12 09:08:51;;;;;;;0.10;0.10;;;;;;;14.58;48.05;101050.44;5023426;28;20037;-63
2022/04/12 09:11:17;;;;;;;0.30;0.20;;;;;;;14.66;46.49;101043.16;5036468;28;20032;-62
2022/04/12 09:14:00;;;;;;;0.17;0.17;;;;;;;14.95;46.35;101039.56;5028793;28;20059;-62
2022/04/12 09:16:28;;;;;;;0.10;0.10;;;;;;;14.93;46.35;101041.88;5027857;28;20426;-63
2022/04/12 09:18:54;;;;;;;0.08;0.08;;;;;;;15.22;46.18;101032.81;5029677;28;20475;-64
2022/04/12 09:21:21;;;;;;;0.00;0.00;;;;;;;15.00;46.56;101040.00;5043312;28;20028;-62
2022/04/12 09:23:55;;;;;;;0.00;0.00;;;;;;;15.27;45.78;101025.09;5037256;28;20039;-62
2022/04/12 09:26:26;;;;;;;0.03;0.03;;;;;;;15.13;45.16;101029.66;5037203;28;20122;-62
2022/04/12 09:28:54;;;;;;;0.20;0.20;;;;;;;15.16;46.13;101037.81;5023029;28;20025;-63
2022/04/12 09:31:22;;;;;;;0.00;0.00;;;;;;;15.46;45.18;101031.47;5039747;28;20377;-63
2022/04/12 09:33:50;;;;;;;0.20;0.20;;;;;;;15.72;46.85;101037.44;5043140;28;20502;-63
2022/04/12 09:36:15;;;;;;;0.05;0.05;;;;;;;16.03;45.14;101031.38;5037499;28;20056;-63
2022/04/12 09:38:43;;;;;;;0.08;0.08;;;;;;;16.05;44.29;101034.50;5042656;28;20033;-61
2022/04/12 09:41:28;;;;;;;0.20;0.20;;;;;;;15.97;43.58;101032.91;5035823;28;20025;-61
2022/04/12 09:44:08;;;;;;;0.25;0.25;;;;;;;15.98;44.04;101041.84;5001795;28;20028;-61
2022/04/12 09:46:39;;;;;;;0.60;0.35;;;;;;;15.91;43.79;101020.84;5046556;28;20044;-62
2022/04/12 09:49:06;;;;;;;0.20;0.20;;;;;;;15.77;44.32;101023.53;5025860;28;20076;-62
2022/04/12 09:51:34;;;;;;;0.40;0.10;;;;;;;15.70;44.99;101018.03;5038834;28;20519;-63
2022/04/12 09:53:59;;;;;;;0.10;0.10;;;;;;;16.15;44.72;101017.47;5033599;28;20025;-63
2022/04/12 09:56:29;;;;;;;0.20;0.20;;;;;;;16.14;45.45;101013.16;5037166;28;20099;-63
2022/04/12 09:58:59;;;;;;;0.05;0.05;;;;;;;16.36;44.39;101022.19;5033466;28;20033;-63
2022/04/12 10:01:25;;;;;;;0.08;0.08;;;;;;;16.51;43.22;101012.91;5042685;28;20037;-62
2022/04/12 10:03:55;;;;;;;0.25;0.25;;;;;;;16.56;43.28;101017.22;5023381;28;20115;-62
2022/04/12 10:06:23;;;;;;;0.08;0.08;;;;;;;16.85;43.05;101007.91;5040919;28;20044;-63
2022/04/12 10:08:58;;;;;;;0.55;0.40;;;;;;;16.53;42.37;101020.72;5030299;28;20087;-64
2022/04/12 10:11:24;;;;;;;0.40;0.35;;;;;;;16.43;43.12;101022.22;5021161;28;20446;-63
2022/04/12 10:13:51;;;;;;;0.00;0.00;;;;;;;16.41;42.50;101012.88;5038730;28;20021;-63
2022/04/12 10:16:19;;;;;;;0.93;0.32;;;;;;;16.28;43.69;101001.56;5038964;28;20048;-63
2022/04/12 10:18:45;;;;;;;0.28;0.28;;;;;;;16.61;43.65;101001.28;5037812;28;20045;-63
2022/04/12 10:21:12;;;;;;;0.00;0.00;;;;;;;16.39;42.39;101004.31;5036191;28;20064;-63
2022/04/12 10:23:44;;;;;;;0.00;0.00;;;;;;;16.28;42.72;101007.78;5020790;28;20037;-63
2022/04/12 10:26:10;;;;;;;;;;;;;;;16.18;42.92;101005.06;5043611;28;20037;-61
2022/04/12 10:28:37;;;;;;;0.10;0.10;;;;;;;16.10;43.78;101009.66;5038329;28;19936;-63
2022/04/12 10:31:15;;;;;;;0.20;0.20;;;;;;;16.30;43.25;101007.41;5036063;28;20074;-63
2022/04/12 10:33:50;;;;;;;0.00;0.00;;;;;;;16.35;42.45;101004.31;5036368;28;20104;-62
2022/04/12 10:36:15;;;;;;;0.15;0.15;;;;;;;16.26;43.53;100999.25;5038462;28;20029;-61
2022/04/12 10:38:43;;;;;;;0.15;0.00;;;;;;;16.47;43.08;100998.53;5027231;28;20027;-63
2022/04/12 10:41:17;;;;;;;0.13;0.13;;;;;;;16.68;43.54;100993.16;5033799;28;20064;-63
2022/04/12 10:43:43;;;;;;;0.52;0.20;;;;;;;16.72;43.35;100988.50;5036619;28;20036;-62
2022/04/12 10:46:13;;;;;;;0.00;0.00;;;;;;;16.94;43.26;100987.31;5033360;28;20029;-62
2022/04/12 10:48:39;;;;;;;0.10;0.10;;;;;;;16.83;43.47;100981.09;5032859;28;20040;-63
2022/04/12 10:51:06;;;;;;;0.05;0.05;;;;;;;17.08;41.86;100970.97;5032079;28;20041;-62
2022/04/12 10:53:37;;;;;;;1.05;1.00;;;;;;;17.01;42.70;100970.97;5014877;28;20033;-62
2022/04/12 10:56:14;;;;;;;0.00;0.00;;;;;;;16.98;42.71;100965.53;5037424;28;20051;-63
2022/04/12 10:58:44;;;;;;;0.08;0.08;;;;;;;16.87;42.30;100946.50;5036299;28;20487;-63
2022/04/12 11:01:14;;;;;;;0.00;0.00;;;;;;;16.78;42.82;100945.34;5035990;28;20109;-63
2022/04/12 11:03:40;;;;;;;0.00;0.00;;;;;;;16.98;42.96;100960.88;5039717;28;20045;-63
2022/04/12 11:06:12;;;;;;;1.35;0.80;;;;;;;17.21;42.14;100946.84;5036387;28;20029;-64
2022/04/12 11:08:37;;;;;;;0.13;0.13;;;;;;;17.52;42.29;100942.50;5043006;28;20136;-63
2022/04/12 11:11:06;;;;;;;0.68;0.55;;;;;;;17.93;42.36;100948.97;5045129;28;20017;-63
2022/04/12 11:13:33;;;;;;;0.20;0.20;;;;;;;18.34;40.86;100940.94;5037249;28;20029;-63
2022/04/12 11:16:10;;;;;;;0.10;0.10;;;;;;;18.43;41.13;100944.00;5033346;28;20053;-63
2022/04/12 11:18:55;;;;;;;0.20;0.20;;;;;;;18.75;39.23;100945.34;5042811;28;20043;-63
2022/04/12 11:21:40;;;;;;;0.17;0.17;;;;;;;18.75;39.71;100948.06;5029494;28;20402;-63
2022/04/12 11:24:09;;;;;;;0.08;0.03;;;;;;;18.70;39.12;100942.25;5041080;28;20029;-63
2022/04/12 11:26:40;;;;;;;0.13;0.13;;;;;;;18.79;39.51;100935.13;5045819;28;20031;-63
2022/04/12 11:29:07;;;;;;;;;;;;;;;18.65;39.07;100956.31;5045167;28;20116;-63
2022/04/12 11:31:36;;;;;;;0.75;0.15;;;;;;;18.59;40.05;100936.09;5046257;28;19917;-63